sensor_id;sensor_type;location;lat;lon;timestamp;pressure;altitude;pressure_sealevel;temperature;humidity
46412;BME280;32113;42.012;24.870;2023-07-13T00:00:05;99027.00;;;28.12;41.32
46412;BME280;32113;42.012;24.870;2023-07-13T00:02:36;99030.31;;;28.25;40.92
46412;BME280;32113;42.012;24.870;2023-07-13T00:05:02;99035.25;;;28.18;41.11
46412;BME280;32113;42.012;24.870;2023-07-13T00:07:27;99034.47;;;28.06;41.29
46412;BME280;32113;42.012;24.870;2023-07-13T00:09:52;99032.72;;;27.96;41.71
46412;BME280;32113;42.012;24.870;2023-07-13T00:14:49;99025.78;;;27.94;41.77
46412;BME280;32113;42.012;24.870;2023-07-13T00:17:15;99019.22;;;28.10;41.43
46412;BME280;32113;42.012;24.870;2023-07-13T00:19:40;99022.94;;;28.07;41.70
46412;BME280;32113;42.012;24.870;2023-07-13T00:22:05;99029.13;;;28.18;41.47
46412;BME280;32113;42.012;24.870;2023-07-13T00:24:30;99036.13;;;28.07;41.56
46412;BME280;32113;42.012;24.870;2023-07-13T00:26:56;99033.41;;;28.19;41.49
46412;BME280;32113;42.012;24.870;2023-07-13T00:29:21;99032.47;;;28.41;41.37
46412;BME280;32113;42.012;24.870;2023-07-13T00:31:46;99037.31;;;28.36;42.35
46412;BME280;32113;42.012;24.870;2023-07-13T00:34:12;99040.72;;;28.27;42.58
46412;BME280;32113;42.012;24.870;2023-07-13T00:36:37;99036.84;;;28.31;42.17
46412;BME280;32113;42.012;24.870;2023-07-13T00:39:02;99031.72;;;28.29;41.74
46412;BME280;32113;42.012;24.870;2023-07-13T00:41:29;99031.44;;;28.11;41.80
46412;BME280;32113;42.012;24.870;2023-07-13T00:43:54;99038.53;;;27.89;41.97
46412;BME280;32113;42.012;24.870;2023-07-13T00:46:24;99031.50;;;27.78;42.20
46412;BME280;32113;42.012;24.870;2023-07-13T00:48:50;99026.94;;;27.80;42.17
46412;BME280;32113;42.012;24.870;2023-07-13T00:54:16;99020.50;;;28.16;42.06
46412;BME280;32113;42.012;24.870;2023-07-13T00:56:43;99016.50;;;28.22;41.36
46412;BME280;32113;42.012;24.870;2023-07-13T00:59:10;99005.72;;;28.25;41.56
46412;BME280;32113;42.012;24.870;2023-07-13T01:01:36;99019.28;;;28.20;41.54
46412;BME280;32113;42.012;24.870;2023-07-13T01:04:02;99009.19;;;28.04;41.75
46412;BME280;32113;42.012;24.870;2023-07-13T01:06:27;99012.28;;;28.09;41.76
46412;BME280;32113;42.012;24.870;2023-07-13T01:08:53;99008.56;;;27.90;42.17
46412;BME280;32113;42.012;24.870;2023-07-13T01:11:19;99003.94;;;27.83;42.49
46412;BME280;32113;42.012;24.870;2023-07-13T01:13:46;98998.59;;;27.94;42.13
46412;BME280;32113;42.012;24.870;2023-07-13T01:16:13;98995.69;;;27.76;42.69
46412;BME280;32113;42.012;24.870;2023-07-13T01:18:40;98992.28;;;27.64;42.57
46412;BME280;32113;42.012;24.870;2023-07-13T01:21:05;98991.94;;;27.57;43.11
46412;BME280;32113;42.012;24.870;2023-07-13T01:23:31;98985.47;;;27.61;42.93
46412;BME280;32113;42.012;24.870;2023-07-13T01:25:56;98987.59;;;27.67;43.00
46412;BME280;32113;42.012;24.870;2023-07-13T01:28:22;98992.63;;;27.71;42.69
46412;BME280;32113;42.012;24.870;2023-07-13T01:30:48;98986.16;;;27.63;42.76
46412;BME280;32113;42.012;24.870;2023-07-13T01:33:14;98984.50;;;27.62;42.96
46412;BME280;32113;42.012;24.870;2023-07-13T01:35:40;98987.16;;;27.62;42.78
46412;BME280;32113;42.012;24.870;2023-07-13T01:38:05;98977.56;;;27.61;42.81
46412;BME280;32113;42.012;24.870;2023-07-13T01:40:31;98998.66;;;27.61;42.91
46412;BME280;32113;42.012;24.870;2023-07-13T01:42:57;98990.69;;;27.73;42.54
46412;BME280;32113;42.012;24.870;2023-07-13T01:45:23;98987.28;;;27.82;42.19
46412;BME280;32113;42.012;24.870;2023-07-13T01:47:48;98998.38;;;27.86;42.33
46412;BME280;32113;42.012;24.870;2023-07-13T01:50:13;99002.00;;;27.85;42.47
46412;BME280;32113;42.012;24.870;2023-07-13T01:52:38;99010.22;;;27.91;42.61
46412;BME280;32113;42.012;24.870;2023-07-13T01:55:04;99003.94;;;28.04;42.47
46412;BME280;32113;42.012;24.870;2023-07-13T01:57:29;99001.47;;;28.12;42.10
46412;BME280;32113;42.012;24.870;2023-07-13T01:59:54;99008.75;;;28.20;42.42
46412;BME280;32113;42.012;24.870;2023-07-13T02:02:20;99018.25;;;28.32;41.88
46412;BME280;32113;42.012;24.870;2023-07-13T02:04:45;99016.78;;;28.40;42.03
46412;BME280;32113;42.012;24.870;2023-07-13T02:07:10;99018.75;;;28.48;41.81
46412;BME280;32113;42.012;24.870;2023-07-13T02:09:36;99020.94;;;28.42;41.38
46412;BME280;32113;42.012;24.870;2023-07-13T02:12:01;99020.22;;;28.40;41.09
46412;BME280;32113;42.012;24.870;2023-07-13T02:14:26;99024.81;;;28.17;41.54
46412;BME280;32113;42.012;24.870;2023-07-13T02:16:51;99028.78;;;27.90;42.02
46412;BME280;32113;42.012;24.870;2023-07-13T02:19:17;99028.91;;;27.67;42.49
46412;BME280;32113;42.012;24.870;2023-07-13T02:21:42;99028.16;;;27.76;42.33
46412;BME280;32113;42.012;24.870;2023-07-13T02:24:07;99027.44;;;27.74;42.11
46412;BME280;32113;42.012;24.870;2023-07-13T02:26:33;99031.97;;;27.84;42.27
46412;BME280;32113;42.012;24.870;2023-07-13T02:28:59;99035.75;;;27.91;42.07
46412;BME280;32113;42.012;24.870;2023-07-13T02:31:24;99036.97;;;27.87;42.11
46412;BME280;32113;42.012;24.870;2023-07-13T02:33:50;99042.50;;;27.84;42.00
46412;BME280;32113;42.012;24.870;2023-07-13T02:36:15;99045.59;;;27.89;42.36
46412;BME280;32113;42.012;24.870;2023-07-13T02:38:41;99050.22;;;27.97;42.60
46412;BME280;32113;42.012;24.870;2023-07-13T02:41:07;99043.06;;;27.87;42.22
46412;BME280;32113;42.012;24.870;2023-07-13T02:43:33;99044.16;;;27.85;42.20
46412;BME280;32113;42.012;24.870;2023-07-13T02:45:59;99046.44;;;27.89;42.72
46412;BME280;32113;42.012;24.870;2023-07-13T02:48:29;99053.56;;;27.77;42.57
46412;BME280;32113;42.012;24.870;2023-07-13T02:50:54;99047.75;;;27.62;42.68
46412;BME280;32113;42.012;24.870;2023-07-13T02:53:19;99049.03;;;27.57;42.95
46412;BME280;32113;42.012;24.870;2023-07-13T02:55:44;99047.34;;;27.67;43.06
46412;BME280;32113;42.012;24.870;2023-07-13T02:58:12;99047.97;;;27.59;43.08
46412;BME280;32113;42.012;24.870;2023-07-13T03:00:42;99041.53;;;27.52;42.62
46412;BME280;32113;42.012;24.870;2023-07-13T03:03:07;99037.25;;;27.39;42.99
46412;BME280;32113;42.012;24.870;2023-07-13T03:05:32;99046.19;;;27.15;43.51
46412;BME280;32113;42.012;24.870;2023-07-13T03:07:58;99042.34;;;27.20;43.62
46412;BME280;32113;42.012;24.870;2023-07-13T03:10:23;99038.50;;;27.24;43.49
46412;BME280;32113;42.012;24.870;2023-07-13T03:12:48;99029.91;;;27.10;43.55
46412;BME280;32113;42.012;24.870;2023-07-13T03:15:13;99032.19;;;27.04;43.97
46412;BME280;32113;42.012;24.870;2023-07-13T03:17:39;99028.59;;;27.05;43.89
46412;BME280;32113;42.012;24.870;2023-07-13T03:20:04;99026.81;;;26.82;44.41
46412;BME280;32113;42.012;24.870;2023-07-13T03:22:29;99021.09;;;26.77;44.31
46412;BME280;32113;42.012;24.870;2023-07-13T03:24:55;99026.22;;;26.67;44.85
46412;BME280;32113;42.012;24.870;2023-07-13T03:27:20;99032.31;;;26.79;44.59
46412;BME280;32113;42.012;24.870;2023-07-13T03:29:45;99038.28;;;26.70;45.01
46412;BME280;32113;42.012;24.870;2023-07-13T03:32:11;99034.22;;;26.66;45.14
46412;BME280;32113;42.012;24.870;2023-07-13T03:34:36;99039.75;;;26.62;45.50
46412;BME280;32113;42.012;24.870;2023-07-13T03:37:01;99037.22;;;26.84;45.07
46412;BME280;32113;42.012;24.870;2023-07-13T03:39:27;99034.47;;;26.85;44.59
46412;BME280;32113;42.012;24.870;2023-07-13T03:41:52;99037.13;;;26.97;44.44
46412;BME280;32113;42.012;24.870;2023-07-13T03:44:18;99038.53;;;27.01;44.31
46412;BME280;32113;42.012;24.870;2023-07-13T03:46:43;99036.84;;;27.11;44.20
46412;BME280;32113;42.012;24.870;2023-07-13T03:49:09;99038.78;;;27.09;44.00
46412;BME280;32113;42.012;24.870;2023-07-13T03:51:34;99033.88;;;26.93;44.64
46412;BME280;32113;42.012;24.870;2023-07-13T03:53:59;99036.75;;;26.79;44.88
46412;BME280;32113;42.012;24.870;2023-07-13T03:56:24;99031.03;;;26.73;45.31
46412;BME280;32113;42.012;24.870;2023-07-13T03:58:50;99031.03;;;26.73;44.89
46412;BME280;32113;42.012;24.870;2023-07-13T04:01:16;99034.13;;;26.79;45.05
46412;BME280;32113;42.012;24.870;2023-07-13T04:03:41;99036.13;;;26.75;45.03
46412;BME280;32113;42.012;24.870;2023-07-13T04:06:08;99033.50;;;26.75;45.49
46412;BME280;32113;42.012;24.870;2023-07-13T04:08:40;99028.38;;;26.85;45.01
46412;BME280;32113;42.012;24.870;2023-07-13T04:11:05;99024.41;;;27.02;44.77
46412;BME280;32113;42.012;24.870;2023-07-13T04:13:30;99025.50;;;26.99;44.53
46412;BME280;32113;42.012;24.870;2023-07-13T04:15:56;99029.69;;;27.02;44.97
46412;BME280;32113;42.012;24.870;2023-07-13T04:18:21;99037.56;;;27.13;44.59
46412;BME280;32113;42.012;24.870;2023-07-13T04:20:47;99039.25;;;27.14;44.31
46412;BME280;32113;42.012;24.870;2023-07-13T04:23:12;99037.91;;;27.20;43.98
46412;BME280;32113;42.012;24.870;2023-07-13T04:25:38;99039.78;;;27.29;43.96
46412;BME280;32113;42.012;24.870;2023-07-13T04:28:03;99041.91;;;27.47;44.39
46412;BME280;32113;42.012;24.870;2023-07-13T04:30:29;99042.34;;;27.52;43.99
46412;BME280;32113;42.012;24.870;2023-07-13T04:32:54;99057.91;;;27.67;43.93
46412;BME280;32113;42.012;24.870;2023-07-13T04:35:20;99056.66;;;27.83;43.91
46412;BME280;32113;42.012;24.870;2023-07-13T04:37:46;99060.63;;;27.98;43.67
46412;BME280;32113;42.012;24.870;2023-07-13T04:40:12;99061.31;;;27.79;43.85
46412;BME280;32113;42.012;24.870;2023-07-13T04:42:37;99072.06;;;27.87;43.45
46412;BME280;32113;42.012;24.870;2023-07-13T04:45:03;99070.16;;;27.89;43.59
46412;BME280;32113;42.012;24.870;2023-07-13T04:47:32;99071.06;;;28.00;43.16
46412;BME280;32113;42.012;24.870;2023-07-13T04:49:57;99069.88;;;27.92;43.78
46412;BME280;32113;42.012;24.870;2023-07-13T04:52:23;99072.41;;;27.94;43.48
46412;BME280;32113;42.012;24.870;2023-07-13T04:54:48;99068.78;;;27.95;43.30
46412;BME280;32113;42.012;24.870;2023-07-13T04:57:13;99064.03;;;27.89;43.41
46412;BME280;32113;42.012;24.870;2023-07-13T04:59:39;99067.44;;;28.01;43.70
46412;BME280;32113;42.012;24.870;2023-07-13T05:02:04;99065.91;;;28.19;43.72
46412;BME280;32113;42.012;24.870;2023-07-13T05:04:29;99050.63;;;28.35;43.55
46412;BME280;32113;42.012;24.870;2023-07-13T05:06:55;99052.38;;;28.55;43.03
46412;BME280;32113;42.012;24.870;2023-07-13T05:09:20;99060.97;;;28.79;43.08
46412;BME280;32113;42.012;24.870;2023-07-13T05:11:45;99061.88;;;28.99;42.59
46412;BME280;32113;42.012;24.870;2023-07-13T05:14:10;99071.09;;;29.15;42.23
46412;BME280;32113;42.012;24.870;2023-07-13T05:16:36;99067.50;;;29.35;42.41
46412;BME280;32113;42.012;24.870;2023-07-13T05:19:01;99071.72;;;29.58;41.58
46412;BME280;32113;42.012;24.870;2023-07-13T05:21:26;99075.22;;;29.78;41.03
46412;BME280;32113;42.012;24.870;2023-07-13T05:23:52;99070.88;;;29.97;40.87
46412;BME280;32113;42.012;24.870;2023-07-13T05:26:17;99079.25;;;30.12;40.50
46412;BME280;32113;42.012;24.870;2023-07-13T05:28:42;99071.28;;;30.32;40.48
46412;BME280;32113;42.012;24.870;2023-07-13T05:31:09;99072.34;;;30.49;40.17
46412;BME280;32113;42.012;24.870;2023-07-13T05:33:34;99069.22;;;30.63;40.23
46412;BME280;32113;42.012;24.870;2023-07-13T05:35:59;99068.19;;;30.84;39.20
46412;BME280;32113;42.012;24.870;2023-07-13T05:38:26;99062.56;;;30.97;39.21
46412;BME280;32113;42.012;24.870;2023-07-13T05:40:52;99060.00;;;31.05;40.01
46412;BME280;32113;42.012;24.870;2023-07-13T05:43:18;99054.56;;;31.07;38.66
46412;BME280;32113;42.012;24.870;2023-07-13T05:45:43;99059.09;;;31.15;38.69
46412;BME280;32113;42.012;24.870;2023-07-13T05:48:08;99060.47;;;31.19;38.65
46412;BME280;32113;42.012;24.870;2023-07-13T05:50:34;99064.03;;;31.28;38.39
46412;BME280;32113;42.012;24.870;2023-07-13T05:52:59;99063.38;;;31.26;38.98
46412;BME280;32113;42.012;24.870;2023-07-13T05:55:24;99061.13;;;31.31;38.98
46412;BME280;32113;42.012;24.870;2023-07-13T05:57:49;99066.81;;;31.36;39.92
46412;BME280;32113;42.012;24.870;2023-07-13T06:00:15;99063.84;;;31.39;39.43
46412;BME280;32113;42.012;24.870;2023-07-13T06:02:41;99062.94;;;31.49;39.35
46412;BME280;32113;42.012;24.870;2023-07-13T06:05:06;99065.44;;;31.50;39.17
46412;BME280;32113;42.012;24.870;2023-07-13T06:07:32;99065.53;;;31.40;40.07
46412;BME280;32113;42.012;24.870;2023-07-13T06:09:57;99063.41;;;31.44;40.13
46412;BME280;32113;42.012;24.870;2023-07-13T06:12:24;99063.84;;;31.39;40.42
46412;BME280;32113;42.012;24.870;2023-07-13T06:14:49;99064.53;;;31.41;40.31
46412;BME280;32113;42.012;24.870;2023-07-13T06:17:14;99056.88;;;31.38;40.35
46412;BME280;32113;42.012;24.870;2023-07-13T06:19:40;99054.75;;;31.42;40.26
46412;BME280;32113;42.012;24.870;2023-07-13T06:22:05;99056.22;;;31.36;40.45
46412;BME280;32113;42.012;24.870;2023-07-13T06:24:30;99063.03;;;31.29;40.60
46412;BME280;32113;42.012;24.870;2023-07-13T06:26:56;99059.16;;;31.33;40.80
46412;BME280;32113;42.012;24.870;2023-07-13T06:29:21;99064.31;;;31.35;40.89
46412;BME280;32113;42.012;24.870;2023-07-13T06:31:46;99060.41;;;31.29;40.75
46412;BME280;32113;42.012;24.870;2023-07-13T06:34:11;99061.66;;;31.35;40.38
46412;BME280;32113;42.012;24.870;2023-07-13T06:36:37;99064.31;;;31.35;41.37
46412;BME280;32113;42.012;24.870;2023-07-13T06:39:03;99065.66;;;31.39;41.82
46412;BME280;32113;42.012;24.870;2023-07-13T06:41:29;99063.91;;;31.48;41.09
46412;BME280;32113;42.012;24.870;2023-07-13T06:43:55;99058.09;;;31.44;40.47
46412;BME280;32113;42.012;24.870;2023-07-13T06:46:21;99054.38;;;31.37;41.50
46412;BME280;32113;42.012;24.870;2023-07-13T06:48:46;99057.88;;;31.37;41.56
46412;BME280;32113;42.012;24.870;2023-07-13T06:51:12;99057.47;;;31.50;40.85
46412;BME280;32113;42.012;24.870;2023-07-13T06:53:37;99052.94;;;31.60;41.08
46412;BME280;32113;42.012;24.870;2023-07-13T06:56:02;99046.50;;;31.63;40.95
46412;BME280;32113;42.012;24.870;2023-07-13T06:58:27;99048.56;;;31.69;40.42
46412;BME280;32113;42.012;24.870;2023-07-13T07:00:53;99048.28;;;31.81;41.28
46412;BME280;32113;42.012;24.870;2023-07-13T07:03:18;99042.38;;;32.05;40.09
46412;BME280;32113;42.012;24.870;2023-07-13T07:05:43;99046.38;;;32.09;40.97
46412;BME280;32113;42.012;24.870;2023-07-13T07:08:09;99049.31;;;32.24;39.52
46412;BME280;32113;42.012;24.870;2023-07-13T07:10:35;99046.81;;;32.31;39.63
46412;BME280;32113;42.012;24.870;2023-07-13T07:13:00;99053.94;;;32.49;39.72
46412;BME280;32113;42.012;24.870;2023-07-13T07:15:26;99047.50;;;32.60;39.97
46412;BME280;32113;42.012;24.870;2023-07-13T07:17:51;99059.88;;;32.77;39.00
46412;BME280;32113;42.012;24.870;2023-07-13T07:20:17;99055.50;;;33.03;38.79
46412;BME280;32113;42.012;24.870;2023-07-13T07:22:42;99045.75;;;33.28;37.66
46412;BME280;32113;42.012;24.870;2023-07-13T07:25:07;99047.44;;;33.46;37.58
46412;BME280;32113;42.012;24.870;2023-07-13T07:27:33;99048.66;;;33.68;36.98
46412;BME280;32113;42.012;24.870;2023-07-13T07:29:58;99054.28;;;33.82;37.35
46412;BME280;32113;42.012;24.870;2023-07-13T07:32:24;99055.28;;;33.98;36.79
46412;BME280;32113;42.012;24.870;2023-07-13T07:34:49;99055.59;;;34.19;35.73
46412;BME280;32113;42.012;24.870;2023-07-13T07:37:15;99054.88;;;34.34;36.47
46412;BME280;32113;42.012;24.870;2023-07-13T07:39:40;99042.31;;;34.59;35.30
46412;BME280;32113;42.012;24.870;2023-07-13T07:42:06;99046.94;;;34.74;34.45
46412;BME280;32113;42.012;24.870;2023-07-13T07:44:31;99044.91;;;34.84;34.37
46412;BME280;32113;42.012;24.870;2023-07-13T07:46:57;99039.47;;;35.01;34.11
46412;BME280;32113;42.012;24.870;2023-07-13T07:49:22;99047.75;;;35.15;34.07
46412;BME280;32113;42.012;24.870;2023-07-13T07:51:47;99040.06;;;35.20;34.45
46412;BME280;32113;42.012;24.870;2023-07-13T07:54:13;99048.31;;;35.33;33.73
46412;BME280;32113;42.012;24.870;2023-07-13T07:56:39;99047.72;;;35.46;33.66
46412;BME280;32113;42.012;24.870;2023-07-13T07:59:05;99050.94;;;35.65;34.10
46412;BME280;32113;42.012;24.870;2023-07-13T08:01:30;99052.41;;;35.68;33.36
46412;BME280;32113;42.012;24.870;2023-07-13T08:03:55;99046.59;;;35.87;33.52
46412;BME280;32113;42.012;24.870;2023-07-13T08:06:21;99043.81;;;35.96;33.87
46412;BME280;32113;42.012;24.870;2023-07-13T08:08:47;99040.72;;;36.07;33.03
46412;BME280;32113;42.012;24.870;2023-07-13T08:11:12;99045.97;;;36.31;33.04
46412;BME280;32113;42.012;24.870;2023-07-13T08:13:37;99043.94;;;36.48;31.90
46412;BME280;32113;42.012;24.870;2023-07-13T08:16:04;99036.50;;;36.58;33.00
46412;BME280;32113;42.012;24.870;2023-07-13T08:18:29;99039.06;;;36.66;33.21
46412;BME280;32113;42.012;24.870;2023-07-13T08:20:54;99038.63;;;36.78;32.06
46412;BME280;32113;42.012;24.870;2023-07-13T08:23:23;99031.03;;;36.81;32.14
46412;BME280;32113;42.012;24.870;2023-07-13T08:25:52;99035.00;;;36.86;31.75
46412;BME280;32113;42.012;24.870;2023-07-13T08:28:18;99034.66;;;36.95;30.81
46412;BME280;32113;42.012;24.870;2023-07-13T08:30:43;99029.53;;;36.94;30.21
46412;BME280;32113;42.012;24.870;2023-07-13T08:33:08;99038.69;;;36.85;30.42
46412;BME280;32113;42.012;24.870;2023-07-13T08:35:34;99026.47;;;36.97;30.97
46412;BME280;32113;42.012;24.870;2023-07-13T08:37:59;99026.59;;;37.11;30.76
46412;BME280;32113;42.012;24.870;2023-07-13T08:40:25;99031.50;;;37.22;31.02
46412;BME280;32113;42.012;24.870;2023-07-13T08:42:56;99024.41;;;37.36;29.72
46412;BME280;32113;42.012;24.870;2023-07-13T08:47:54;99027.03;;;37.51;29.15
46412;BME280;32113;42.012;24.870;2023-07-13T08:50:21;99029.19;;;37.63;29.68
46412;BME280;32113;42.012;24.870;2023-07-13T08:52:49;99028.44;;;37.69;29.86
46412;BME280;32113;42.012;24.870;2023-07-13T08:55:18;99018.03;;;37.81;29.31
46412;BME280;32113;42.012;24.870;2023-07-13T08:57:46;99024.22;;;37.88;29.23
46412;BME280;32113;42.012;24.870;2023-07-13T09:00:13;99014.56;;;37.87;29.20
46412;BME280;32113;42.012;24.870;2023-07-13T09:02:47;99011.88;;;37.87;28.58
46412;BME280;32113;42.012;24.870;2023-07-13T09:05:24;99014.22;;;37.97;28.46
46412;BME280;32113;42.012;24.870;2023-07-13T09:07:55;99006.50;;;38.16;27.91
46412;BME280;32113;42.012;24.870;2023-07-13T09:12:54;98998.53;;;38.29;27.96
46412;BME280;32113;42.012;24.870;2023-07-13T09:17:51;98998.63;;;38.49;28.15
46412;BME280;32113;42.012;24.870;2023-07-13T09:22:48;98991.91;;;38.67;28.80
46412;BME280;32113;42.012;24.870;2023-07-13T09:25:29;98982.88;;;38.82;29.02
46412;BME280;32113;42.012;24.870;2023-07-13T09:27:56;98986.00;;;38.99;28.46
46412;BME280;32113;42.012;24.870;2023-07-13T09:30:25;98977.81;;;39.14;28.63
46412;BME280;32113;42.012;24.870;2023-07-13T09:32:54;98982.75;;;39.17;28.54
46412;BME280;32113;42.012;24.870;2023-07-13T09:35:21;98970.56;;;39.28;27.58
46412;BME280;32113;42.012;24.870;2023-07-13T09:37:47;98962.13;;;39.31;26.81
46412;BME280;32113;42.012;24.870;2023-07-13T09:42:57;98967.28;;;39.46;28.08
46412;BME280;32113;42.012;24.870;2023-07-13T09:45:30;98969.34;;;39.58;27.95
46412;BME280;32113;42.012;24.870;2023-07-13T09:48:00;98961.69;;;39.68;27.61
46412;BME280;32113;42.012;24.870;2023-07-13T09:50:28;98962.53;;;39.62;25.96
46412;BME280;32113;42.012;24.870;2023-07-13T09:52:54;98955.75;;;39.59;24.81
46412;BME280;32113;42.012;24.870;2023-07-13T09:55:39;98948.31;;;39.48;25.86
46412;BME280;32113;42.012;24.870;2023-07-13T10:00:37;98935.91;;;39.47;25.60
46412;BME280;32113;42.012;24.870;2023-07-13T10:05:28;98923.31;;;39.67;23.27
46412;BME280;32113;42.012;24.870;2023-07-13T10:08:03;98918.31;;;39.78;22.81
46412;BME280;32113;42.012;24.870;2023-07-13T10:10:28;98909.19;;;39.92;24.11
46412;BME280;32113;42.012;24.870;2023-07-13T10:12:53;98910.25;;;39.98;23.82
46412;BME280;32113;42.012;24.870;2023-07-13T10:15:20;98907.13;;;40.01;23.72
46412;BME280;32113;42.012;24.870;2023-07-13T10:17:46;98897.78;;;40.11;24.02
46412;BME280;32113;42.012;24.870;2023-07-13T10:20:12;98893.81;;;40.20;24.40
46412;BME280;32113;42.012;24.870;2023-07-13T10:22:45;98894.06;;;40.12;23.09
46412;BME280;32113;42.012;24.870;2023-07-13T10:25:16;98892.41;;;40.11;24.58
46412;BME280;32113;42.012;24.870;2023-07-13T10:27:43;98890.69;;;40.23;24.45
46412;BME280;32113;42.012;24.870;2023-07-13T10:32:34;98886.97;;;40.24;22.90
46412;BME280;32113;42.012;24.870;2023-07-13T10:34:59;98874.72;;;40.35;22.64
46412;BME280;32113;42.012;24.870;2023-07-13T10:37:27;98879.66;;;40.38;22.69
46412;BME280;32113;42.012;24.870;2023-07-13T10:39:55;98884.59;;;40.48;23.00
46412;BME280;32113;42.012;24.870;2023-07-13T10:42:39;98888.88;;;40.56;21.89
46412;BME280;32113;42.012;24.870;2023-07-13T10:45:13;98893.78;;;40.66;21.14
46412;BME280;32113;42.012;24.870;2023-07-13T10:47:39;98883.28;;;40.57;21.15
46412;BME280;32113;42.012;24.870;2023-07-13T10:50:05;98886.13;;;40.63;22.20
46412;BME280;32113;42.012;24.870;2023-07-13T10:52:47;98885.66;;;40.72;21.58
46412;BME280;32113;42.012;24.870;2023-07-13T10:57:59;98876.09;;;40.51;19.73
46412;BME280;32113;42.012;24.870;2023-07-13T11:00:24;98883.13;;;40.52;22.44
46412;BME280;32113;42.012;24.870;2023-07-13T11:02:56;98882.84;;;40.61;21.35
46412;BME280;32113;42.012;24.870;2023-07-13T11:05:27;98879.16;;;40.55;20.33
46412;BME280;32113;42.012;24.870;2023-07-13T11:08:11;98885.41;;;40.49;21.16
46412;BME280;32113;42.012;24.870;2023-07-13T11:15:58;98872.63;;;40.44;21.00
46412;BME280;32113;42.012;24.870;2023-07-13T11:18:23;98860.41;;;40.48;21.92
46412;BME280;32113;42.012;24.870;2023-07-13T11:20:50;98859.75;;;40.53;22.08
46412;BME280;32113;42.012;24.870;2023-07-13T11:25:41;98861.06;;;40.43;20.81
46412;BME280;32113;42.012;24.870;2023-07-13T11:30:35;98856.81;;;40.22;20.90
46412;BME280;32113;42.012;24.870;2023-07-13T11:35:33;98858.38;;;39.98;21.09
46412;BME280;32113;42.012;24.870;2023-07-13T11:37:59;98855.47;;;40.06;22.01
46412;BME280;32113;42.012;24.870;2023-07-13T11:40:25;98853.31;;;40.22;21.33
46412;BME280;32113;42.012;24.870;2023-07-13T11:42:58;98855.91;;;40.35;21.44
46412;BME280;32113;42.012;24.870;2023-07-13T11:45:23;98851.13;;;40.44;21.64
46412;BME280;32113;42.012;24.870;2023-07-13T11:47:49;98842.25;;;40.43;21.33
46412;BME280;32113;42.012;24.870;2023-07-13T11:50:22;98836.44;;;40.46;21.00
46412;BME280;32113;42.012;24.870;2023-07-13T11:52:48;98843.81;;;40.58;21.49
46412;BME280;32113;42.012;24.870;2023-07-13T11:55:16;98840.03;;;40.66;21.81
46412;BME280;32113;42.012;24.870;2023-07-13T11:57:44;98838.81;;;40.62;20.72
46412;BME280;32113;42.012;24.870;2023-07-13T12:00:12;98844.00;;;40.56;21.65
46412;BME280;32113;42.012;24.870;2023-07-13T12:02:40;98845.41;;;40.66;20.48
46412;BME280;32113;42.012;24.870;2023-07-13T12:05:10;98840.91;;;40.59;20.84
46412;BME280;32113;42.012;24.870;2023-07-13T12:07:37;98838.38;;;40.65;21.71
46412;BME280;32113;42.012;24.870;2023-07-13T12:10:55;98839.28;;;40.77;21.53
46412;BME280;32113;42.012;24.870;2023-07-13T12:15:14;98827.94;;;40.75;20.97
46412;BME280;32113;42.012;24.870;2023-07-13T12:17:40;98824.16;;;40.83;21.39
46412;BME280;32113;42.012;24.870;2023-07-13T12:20:26;98820.72;;;41.01;21.07
46412;BME280;32113;42.012;24.870;2023-07-13T12:22:52;98805.94;;;40.92;20.18
46412;BME280;32113;42.012;24.870;2023-07-13T12:25:17;98808.38;;;40.93;20.26
46412;BME280;32113;42.012;24.870;2023-07-13T12:27:46;98803.16;;;40.73;20.45
46412;BME280;32113;42.012;24.870;2023-07-13T12:32:58;98794.00;;;40.81;21.30
46412;BME280;32113;42.012;24.870;2023-07-13T12:35:24;98780.22;;;40.70;21.09
46412;BME280;32113;42.012;24.870;2023-07-13T12:37:50;98785.25;;;40.60;20.64
46412;BME280;32113;42.012;24.870;2023-07-13T12:40:16;98789.44;;;40.56;21.32
46412;BME280;32113;42.012;24.870;2023-07-13T12:42:45;98787.75;;;40.62;21.25
46412;BME280;32113;42.012;24.870;2023-07-13T12:47:40;98790.25;;;40.82;21.42
46412;BME280;32113;42.012;24.870;2023-07-13T12:50:18;98785.69;;;40.89;21.50
46412;BME280;32113;42.012;24.870;2023-07-13T12:52:44;98777.00;;;40.87;21.57
46412;BME280;32113;42.012;24.870;2023-07-13T12:55:14;98771.56;;;40.68;21.16
46412;BME280;32113;42.012;24.870;2023-07-13T12:57:43;98781.50;;;40.68;20.93
46412;BME280;32113;42.012;24.870;2023-07-13T13:00:32;98766.19;;;40.36;21.75
46412;BME280;32113;42.012;24.870;2023-07-13T13:02:57;98771.19;;;40.32;20.75
46412;BME280;32113;42.012;24.870;2023-07-13T13:05:25;98768.09;;;40.36;21.80
46412;BME280;32113;42.012;24.870;2023-07-13T13:07:51;98763.56;;;40.29;21.94
46412;BME280;32113;42.012;24.870;2023-07-13T13:10:16;98767.47;;;40.33;21.76
46412;BME280;32113;42.012;24.870;2023-07-13T13:12:41;98757.72;;;40.39;21.34
46412;BME280;32113;42.012;24.870;2023-07-13T13:15:10;98754.13;;;40.52;20.76
46412;BME280;32113;42.012;24.870;2023-07-13T13:17:36;98759.81;;;40.63;21.20
46412;BME280;32113;42.012;24.870;2023-07-13T13:20:04;98756.03;;;40.70;21.43
46412;BME280;32113;42.012;24.870;2023-07-13T13:22:31;98761.31;;;40.77;21.57
46412;BME280;32113;42.012;24.870;2023-07-13T13:24:57;98759.22;;;40.86;20.80
46412;BME280;32113;42.012;24.870;2023-07-13T13:27:22;98761.84;;;40.93;20.31
46412;BME280;32113;42.012;24.870;2023-07-13T13:29:51;98760.16;;;40.98;19.38
46412;BME280;32113;42.012;24.870;2023-07-13T13:32:19;98760.78;;;40.94;20.11
46412;BME280;32113;42.012;24.870;2023-07-13T13:34:44;98752.88;;;40.99;19.86